Terminal Aerodrome Forecast
Issued by NWS

Home | Current Version | Previous Version | Text Only | Print | Product List | Glossary On
Versions: 1 2 3 4 5 6 7 8 9 10 11 12 13 14 15 16 17 18
000
FTUS44 KBMX 270833 AAA
TAFANB
TAF AMD
KANB 270833Z 2709/2806 00000KT 4SM BR BKN015
      TEMPO 2709/2713 2SM BR OVC007
     FM271600 14009KT P6SM OVC025
     FM272200 20011G16KT P6SM VCTS BKN050CB=

USA.gov is the U.S. government's official web portal to all federal, state and local government web resources and services.